sensor_id;sensor_type;location;lat;lon;timestamp;P1;durP1;ratioP1;P2;durP2;ratioP2
13415;SDS011;6779;50.150;8.680;2022-07-23T00:00:17;5.47;;;3.93;;
13415;SDS011;6779;50.150;8.680;2022-07-23T00:02:44;4.93;;;4.30;;
13415;SDS011;6779;50.150;8.680;2022-07-23T00:05:11;6.70;;;3.70;;
13415;SDS011;6779;50.150;8.680;2022-07-23T00:07:37;5.07;;;3.80;;
13415;SDS011;6779;50.150;8.680;2022-07-23T00:10:03;7.13;;;3.80;;
13415;SDS011;6779;50.150;8.680;2022-07-23T00:12:29;5.47;;;4.53;;
13415;SDS011;6779;50.150;8.680;2022-07-23T00:14:55;5.80;;;4.27;;
13415;SDS011;6779;50.150;8.680;2022-07-23T00:17:20;5.30;;;4.07;;
13415;SDS011;6779;50.150;8.680;2022-07-23T00:19:46;4.47;;;3.90;;
13415;SDS011;6779;50.150;8.680;2022-07-23T00:22:11;4.17;;;3.63;;
13415;SDS011;6779;50.150;8.680;2022-07-23T00:24:37;5.13;;;4.07;;
13415;SDS011;6779;50.150;8.680;2022-07-23T00:27:03;5.73;;;4.00;;
13415;SDS011;6779;50.150;8.680;2022-07-23T00:29:28;6.73;;;4.57;;
13415;SDS011;6779;50.150;8.680;2022-07-23T00:31:54;4.90;;;3.37;;
13415;SDS011;6779;50.150;8.680;2022-07-23T00:34:20;5.47;;;4.10;;
13415;SDS011;6779;50.150;8.680;2022-07-23T00:36:45;6.80;;;4.10;;
13415;SDS011;6779;50.150;8.680;2022-07-23T00:39:11;5.07;;;3.77;;
13415;SDS011;6779;50.150;8.680;2022-07-23T00:41:36;5.93;;;4.10;;
13415;SDS011;6779;50.150;8.680;2022-07-23T00:44:21;5.50;;;3.77;;
13415;SDS011;6779;50.150;8.680;2022-07-23T00:46:50;5.87;;;4.90;;
13415;SDS011;6779;50.150;8.680;2022-07-23T00:49:18;6.13;;;3.97;;
13415;SDS011;6779;50.150;8.680;2022-07-23T00:51:51;6.13;;;4.83;;
13415;SDS011;6779;50.150;8.680;2022-07-23T00:54:18;6.23;;;4.13;;
13415;SDS011;6779;50.150;8.680;2022-07-23T00:56:45;5.50;;;4.23;;
13415;SDS011;6779;50.150;8.680;2022-07-23T00:59:11;4.70;;;4.20;;
13415;SDS011;6779;50.150;8.680;2022-07-23T01:01:37;6.90;;;4.80;;
13415;SDS011;6779;50.150;8.680;2022-07-23T01:04:03;5.80;;;4.23;;
13415;SDS011;6779;50.150;8.680;2022-07-23T01:06:30;5.83;;;4.70;;
13415;SDS011;6779;50.150;8.680;2022-07-23T01:09:00;6.63;;;4.23;;
13415;SDS011;6779;50.150;8.680;2022-07-23T01:11:25;6.17;;;4.53;;
13415;SDS011;6779;50.150;8.680;2022-07-23T01:13:51;5.70;;;4.17;;
13415;SDS011;6779;50.150;8.680;2022-07-23T01:16:17;6.30;;;4.53;;
13415;SDS011;6779;50.150;8.680;2022-07-23T01:18:42;6.93;;;4.30;;
13415;SDS011;6779;50.150;8.680;2022-07-23T01:21:08;7.27;;;4.53;;
13415;SDS011;6779;50.150;8.680;2022-07-23T01:23:38;5.97;;;4.60;;
13415;SDS011;6779;50.150;8.680;2022-07-23T01:26:03;5.57;;;4.30;;
13415;SDS011;6779;50.150;8.680;2022-07-23T01:28:29;5.23;;;3.70;;
13415;SDS011;6779;50.150;8.680;2022-07-23T01:30:55;6.23;;;3.93;;
13415;SDS011;6779;50.150;8.680;2022-07-23T01:33:20;5.83;;;3.77;;
13415;SDS011;6779;50.150;8.680;2022-07-23T01:35:46;5.33;;;4.17;;
13415;SDS011;6779;50.150;8.680;2022-07-23T01:38:12;6.20;;;4.40;;
13415;SDS011;6779;50.150;8.680;2022-07-23T01:40:37;7.53;;;4.57;;
13415;SDS011;6779;50.150;8.680;2022-07-23T01:43:03;5.70;;;3.50;;
13415;SDS011;6779;50.150;8.680;2022-07-23T01:45:28;5.07;;;4.30;;
13415;SDS011;6779;50.150;8.680;2022-07-23T01:47:54;7.20;;;4.70;;
13415;SDS011;6779;50.150;8.680;2022-07-23T01:50:20;6.53;;;4.90;;
13415;SDS011;6779;50.150;8.680;2022-07-23T01:52:45;7.60;;;4.63;;
13415;SDS011;6779;50.150;8.680;2022-07-23T01:55:11;6.03;;;4.40;;
13415;SDS011;6779;50.150;8.680;2022-07-23T01:57:36;6.23;;;4.67;;
13415;SDS011;6779;50.150;8.680;2022-07-23T02:00:03;7.03;;;4.80;;
13415;SDS011;6779;50.150;8.680;2022-07-23T02:02:29;5.87;;;4.50;;
13415;SDS011;6779;50.150;8.680;2022-07-23T02:04:54;5.57;;;4.53;;
13415;SDS011;6779;50.150;8.680;2022-07-23T02:07:20;5.50;;;4.10;;
13415;SDS011;6779;50.150;8.680;2022-07-23T02:09:46;4.90;;;4.37;;
13415;SDS011;6779;50.150;8.680;2022-07-23T02:12:11;6.07;;;4.50;;
13415;SDS011;6779;50.150;8.680;2022-07-23T02:14:37;6.77;;;4.80;;
13415;SDS011;6779;50.150;8.680;2022-07-23T02:17:03;6.13;;;4.70;;
13415;SDS011;6779;50.150;8.680;2022-07-23T02:19:28;5.30;;;4.60;;
13415;SDS011;6779;50.150;8.680;2022-07-23T02:21:54;8.67;;;4.97;;
13415;SDS011;6779;50.150;8.680;2022-07-23T02:24:19;5.73;;;4.10;;
13415;SDS011;6779;50.150;8.680;2022-07-23T02:26:45;6.53;;;4.57;;
13415;SDS011;6779;50.150;8.680;2022-07-23T02:29:11;6.90;;;5.00;;
13415;SDS011;6779;50.150;8.680;2022-07-23T02:31:37;4.53;;;4.07;;
13415;SDS011;6779;50.150;8.680;2022-07-23T02:34:02;5.30;;;4.47;;
13415;SDS011;6779;50.150;8.680;2022-07-23T02:36:28;6.00;;;4.47;;
13415;SDS011;6779;50.150;8.680;2022-07-23T02:38:54;5.03;;;4.00;;
13415;SDS011;6779;50.150;8.680;2022-07-23T02:41:19;7.67;;;4.53;;
13415;SDS011;6779;50.150;8.680;2022-07-23T02:43:45;6.30;;;5.30;;
13415;SDS011;6779;50.150;8.680;2022-07-23T02:46:11;5.47;;;4.17;;
13415;SDS011;6779;50.150;8.680;2022-07-23T02:48:36;6.27;;;4.20;;
13415;SDS011;6779;50.150;8.680;2022-07-23T02:51:02;6.87;;;4.33;;
13415;SDS011;6779;50.150;8.680;2022-07-23T02:53:28;5.30;;;4.27;;
13415;SDS011;6779;50.150;8.680;2022-07-23T02:55:53;4.93;;;4.30;;
13415;SDS011;6779;50.150;8.680;2022-07-23T02:58:19;10.00;;;4.47;;
13415;SDS011;6779;50.150;8.680;2022-07-23T03:00:44;7.27;;;4.57;;
13415;SDS011;6779;50.150;8.680;2022-07-23T03:03:10;7.63;;;5.07;;
13415;SDS011;6779;50.150;8.680;2022-07-23T03:05:36;9.30;;;4.60;;
13415;SDS011;6779;50.150;8.680;2022-07-23T03:08:02;5.50;;;4.33;;
13415;SDS011;6779;50.150;8.680;2022-07-23T03:10:27;5.70;;;4.33;;
13415;SDS011;6779;50.150;8.680;2022-07-23T03:12:53;6.70;;;4.73;;
13415;SDS011;6779;50.150;8.680;2022-07-23T03:15:18;5.90;;;4.37;;
13415;SDS011;6779;50.150;8.680;2022-07-23T03:17:44;7.07;;;4.57;;
13415;SDS011;6779;50.150;8.680;2022-07-23T03:20:10;5.80;;;4.30;;
13415;SDS011;6779;50.150;8.680;2022-07-23T03:22:35;6.57;;;5.20;;
13415;SDS011;6779;50.150;8.680;2022-07-23T03:25:01;6.07;;;4.47;;
13415;SDS011;6779;50.150;8.680;2022-07-23T03:27:28;6.30;;;4.70;;
13415;SDS011;6779;50.150;8.680;2022-07-23T03:29:55;5.77;;;4.73;;
13415;SDS011;6779;50.150;8.680;2022-07-23T03:32:22;6.30;;;4.40;;
13415;SDS011;6779;50.150;8.680;2022-07-23T03:34:48;5.00;;;4.33;;
13415;SDS011;6779;50.150;8.680;2022-07-23T03:37:15;7.00;;;5.43;;
13415;SDS011;6779;50.150;8.680;2022-07-23T03:39:41;6.27;;;4.60;;
13415;SDS011;6779;50.150;8.680;2022-07-23T03:42:07;6.80;;;4.63;;
13415;SDS011;6779;50.150;8.680;2022-07-23T03:44:33;7.67;;;5.50;;
13415;SDS011;6779;50.150;8.680;2022-07-23T03:46:59;6.03;;;5.07;;
13415;SDS011;6779;50.150;8.680;2022-07-23T03:49:25;8.40;;;5.10;;
13415;SDS011;6779;50.150;8.680;2022-07-23T03:51:50;9.40;;;4.97;;
13415;SDS011;6779;50.150;8.680;2022-07-23T03:54:16;6.80;;;5.30;;
13415;SDS011;6779;50.150;8.680;2022-07-23T03:56:41;7.20;;;4.70;;
13415;SDS011;6779;50.150;8.680;2022-07-23T03:59:08;7.50;;;4.83;;
13415;SDS011;6779;50.150;8.680;2022-07-23T04:01:33;6.40;;;4.90;;
13415;SDS011;6779;50.150;8.680;2022-07-23T04:03:59;8.03;;;5.57;;
13415;SDS011;6779;50.150;8.680;2022-07-23T04:06:25;8.57;;;4.50;;
13415;SDS011;6779;50.150;8.680;2022-07-23T04:08:51;5.90;;;4.70;;
13415;SDS011;6779;50.150;8.680;2022-07-23T04:11:17;6.53;;;4.53;;
13415;SDS011;6779;50.150;8.680;2022-07-23T04:13:42;9.33;;;5.37;;
13415;SDS011;6779;50.150;8.680;2022-07-23T04:16:08;7.40;;;5.57;;
13415;SDS011;6779;50.150;8.680;2022-07-23T04:18:33;9.87;;;5.53;;
13415;SDS011;6779;50.150;8.680;2022-07-23T04:20:59;8.37;;;5.33;;
13415;SDS011;6779;50.150;8.680;2022-07-23T04:23:24;7.27;;;5.57;;
13415;SDS011;6779;50.150;8.680;2022-07-23T04:25:50;8.23;;;5.40;;
13415;SDS011;6779;50.150;8.680;2022-07-23T04:28:16;7.13;;;4.63;;
13415;SDS011;6779;50.150;8.680;2022-07-23T04:30:41;8.80;;;5.83;;
13415;SDS011;6779;50.150;8.680;2022-07-23T04:33:07;6.57;;;4.53;;
13415;SDS011;6779;50.150;8.680;2022-07-23T04:35:33;7.27;;;5.40;;
13415;SDS011;6779;50.150;8.680;2022-07-23T04:37:59;6.80;;;4.43;;
13415;SDS011;6779;50.150;8.680;2022-07-23T04:40:25;7.53;;;5.63;;
13415;SDS011;6779;50.150;8.680;2022-07-23T04:42:51;7.60;;;5.10;;
13415;SDS011;6779;50.150;8.680;2022-07-23T04:45:17;6.97;;;5.20;;
13415;SDS011;6779;50.150;8.680;2022-07-23T04:47:43;6.97;;;5.00;;
13415;SDS011;6779;50.150;8.680;2022-07-23T04:50:08;8.37;;;5.20;;
13415;SDS011;6779;50.150;8.680;2022-07-23T04:52:34;7.90;;;5.30;;
13415;SDS011;6779;50.150;8.680;2022-07-23T04:54:59;8.00;;;5.23;;
13415;SDS011;6779;50.150;8.680;2022-07-23T04:57:25;7.87;;;5.43;;
13415;SDS011;6779;50.150;8.680;2022-07-23T04:59:51;8.10;;;5.77;;
13415;SDS011;6779;50.150;8.680;2022-07-23T05:02:16;7.33;;;5.50;;
13415;SDS011;6779;50.150;8.680;2022-07-23T05:04:42;9.07;;;6.00;;
13415;SDS011;6779;50.150;8.680;2022-07-23T05:07:07;7.23;;;4.87;;
13415;SDS011;6779;50.150;8.680;2022-07-23T05:09:33;7.57;;;5.57;;
13415;SDS011;6779;50.150;8.680;2022-07-23T05:11:59;9.80;;;5.60;;
13415;SDS011;6779;50.150;8.680;2022-07-23T05:14:25;7.07;;;5.10;;
13415;SDS011;6779;50.150;8.680;2022-07-23T05:16:50;8.90;;;5.83;;
13415;SDS011;6779;50.150;8.680;2022-07-23T05:19:16;10.77;;;6.33;;
13415;SDS011;6779;50.150;8.680;2022-07-23T05:21:41;6.63;;;4.93;;
13415;SDS011;6779;50.150;8.680;2022-07-23T05:24:07;8.67;;;5.53;;
13415;SDS011;6779;50.150;8.680;2022-07-23T05:26:33;6.97;;;5.53;;
13415;SDS011;6779;50.150;8.680;2022-07-23T05:28:58;10.40;;;5.40;;
13415;SDS011;6779;50.150;8.680;2022-07-23T05:31:24;10.20;;;5.77;;
13415;SDS011;6779;50.150;8.680;2022-07-23T05:33:49;8.33;;;4.87;;
13415;SDS011;6779;50.150;8.680;2022-07-23T05:36:15;7.17;;;5.07;;
13415;SDS011;6779;50.150;8.680;2022-07-23T05:38:41;7.07;;;4.80;;
13415;SDS011;6779;50.150;8.680;2022-07-23T05:41:06;9.73;;;5.53;;
13415;SDS011;6779;50.150;8.680;2022-07-23T05:43:32;8.53;;;5.53;;
13415;SDS011;6779;50.150;8.680;2022-07-23T05:45:57;10.23;;;5.70;;
13415;SDS011;6779;50.150;8.680;2022-07-23T05:48:23;7.53;;;4.97;;
13415;SDS011;6779;50.150;8.680;2022-07-23T05:50:48;8.83;;;6.07;;
13415;SDS011;6779;50.150;8.680;2022-07-23T05:53:14;7.47;;;5.43;;
13415;SDS011;6779;50.150;8.680;2022-07-23T05:55:39;6.87;;;5.23;;
13415;SDS011;6779;50.150;8.680;2022-07-23T05:58:05;6.70;;;5.03;;
13415;SDS011;6779;50.150;8.680;2022-07-23T06:00:31;7.90;;;5.63;;
13415;SDS011;6779;50.150;8.680;2022-07-23T06:02:56;10.37;;;5.63;;
13415;SDS011;6779;50.150;8.680;2022-07-23T06:05:22;11.37;;;4.83;;
13415;SDS011;6779;50.150;8.680;2022-07-23T06:07:48;7.10;;;4.97;;
13415;SDS011;6779;50.150;8.680;2022-07-23T06:10:14;7.87;;;5.20;;
13415;SDS011;6779;50.150;8.680;2022-07-23T06:12:40;8.23;;;5.50;;
13415;SDS011;6779;50.150;8.680;2022-07-23T06:15:06;6.37;;;4.93;;
13415;SDS011;6779;50.150;8.680;2022-07-23T06:17:32;8.27;;;5.13;;
13415;SDS011;6779;50.150;8.680;2022-07-23T06:19:58;6.43;;;4.97;;
13415;SDS011;6779;50.150;8.680;2022-07-23T06:22:24;6.27;;;4.70;;
13415;SDS011;6779;50.150;8.680;2022-07-23T06:24:49;8.43;;;5.17;;
13415;SDS011;6779;50.150;8.680;2022-07-23T06:27:16;5.87;;;5.23;;
13415;SDS011;6779;50.150;8.680;2022-07-23T06:29:42;7.73;;;4.90;;
13415;SDS011;6779;50.150;8.680;2022-07-23T06:32:08;8.47;;;5.10;;
13415;SDS011;6779;50.150;8.680;2022-07-23T06:34:33;6.13;;;4.63;;
13415;SDS011;6779;50.150;8.680;2022-07-23T06:36:59;7.60;;;5.27;;
13415;SDS011;6779;50.150;8.680;2022-07-23T06:39:25;5.80;;;4.30;;
13415;SDS011;6779;50.150;8.680;2022-07-23T06:41:51;7.53;;;4.30;;
13415;SDS011;6779;50.150;8.680;2022-07-23T06:44:17;5.67;;;4.07;;
13415;SDS011;6779;50.150;8.680;2022-07-23T06:46:43;5.93;;;4.07;;
13415;SDS011;6779;50.150;8.680;2022-07-23T06:49:08;6.33;;;4.30;;
13415;SDS011;6779;50.150;8.680;2022-07-23T06:51:34;5.60;;;3.97;;
13415;SDS011;6779;50.150;8.680;2022-07-23T06:53:59;5.10;;;3.77;;
13415;SDS011;6779;50.150;8.680;2022-07-23T06:56:25;3.77;;;3.30;;
13415;SDS011;6779;50.150;8.680;2022-07-23T06:58:51;5.73;;;3.73;;
13415;SDS011;6779;50.150;8.680;2022-07-23T07:01:16;6.40;;;3.70;;
13415;SDS011;6779;50.150;8.680;2022-07-23T07:03:42;4.97;;;3.40;;
13415;SDS011;6779;50.150;8.680;2022-07-23T07:06:08;5.43;;;4.00;;
13415;SDS011;6779;50.150;8.680;2022-07-23T07:08:34;6.03;;;4.27;;
13415;SDS011;6779;50.150;8.680;2022-07-23T07:10:59;5.83;;;4.00;;
13415;SDS011;6779;50.150;8.680;2022-07-23T07:13:25;4.53;;;3.67;;
13415;SDS011;6779;50.150;8.680;2022-07-23T07:15:50;6.10;;;4.00;;
13415;SDS011;6779;50.150;8.680;2022-07-23T07:18:16;6.77;;;4.27;;
13415;SDS011;6779;50.150;8.680;2022-07-23T07:20:42;7.60;;;4.20;;
13415;SDS011;6779;50.150;8.680;2022-07-23T07:23:07;6.10;;;4.40;;
13415;SDS011;6779;50.150;8.680;2022-07-23T07:25:33;4.50;;;3.67;;
13415;SDS011;6779;50.150;8.680;2022-07-23T07:27:58;5.77;;;3.73;;
13415;SDS011;6779;50.150;8.680;2022-07-23T07:30:24;4.80;;;3.70;;
13415;SDS011;6779;50.150;8.680;2022-07-23T07:32:50;5.17;;;3.70;;
13415;SDS011;6779;50.150;8.680;2022-07-23T07:35:15;5.40;;;3.80;;
13415;SDS011;6779;50.150;8.680;2022-07-23T07:37:41;6.90;;;4.07;;
13415;SDS011;6779;50.150;8.680;2022-07-23T07:40:07;4.50;;;3.67;;
13415;SDS011;6779;50.150;8.680;2022-07-23T07:42:33;5.53;;;4.33;;
13415;SDS011;6779;50.150;8.680;2022-07-23T07:44:59;6.63;;;3.87;;
13415;SDS011;6779;50.150;8.680;2022-07-23T07:47:24;5.27;;;3.60;;
13415;SDS011;6779;50.150;8.680;2022-07-23T07:49:50;5.20;;;4.37;;
13415;SDS011;6779;50.150;8.680;2022-07-23T07:52:16;4.30;;;3.80;;
13415;SDS011;6779;50.150;8.680;2022-07-23T07:54:41;6.33;;;4.50;;
13415;SDS011;6779;50.150;8.680;2022-07-23T07:57:07;5.67;;;4.30;;
13415;SDS011;6779;50.150;8.680;2022-07-23T07:59:33;5.00;;;4.33;;
13415;SDS011;6779;50.150;8.680;2022-07-23T08:01:59;4.50;;;3.50;;
13415;SDS011;6779;50.150;8.680;2022-07-23T08:04:25;4.63;;;3.60;;
13415;SDS011;6779;50.150;8.680;2022-07-23T08:06:50;7.20;;;3.90;;
13415;SDS011;6779;50.150;8.680;2022-07-23T08:09:16;4.87;;;3.70;;
13415;SDS011;6779;50.150;8.680;2022-07-23T08:11:41;4.03;;;3.63;;
13415;SDS011;6779;50.150;8.680;2022-07-23T08:14:07;7.10;;;4.00;;
13415;SDS011;6779;50.150;8.680;2022-07-23T08:16:34;6.70;;;3.83;;
13415;SDS011;6779;50.150;8.680;2022-07-23T08:18:59;4.23;;;3.43;;
13415;SDS011;6779;50.150;8.680;2022-07-23T08:21:25;5.47;;;4.20;;
13415;SDS011;6779;50.150;8.680;2022-07-23T08:23:50;4.30;;;3.23;;
13415;SDS011;6779;50.150;8.680;2022-07-23T08:26:16;7.93;;;4.53;;
13415;SDS011;6779;50.150;8.680;2022-07-23T08:28:42;4.97;;;4.07;;
13415;SDS011;6779;50.150;8.680;2022-07-23T08:31:07;6.43;;;4.50;;
13415;SDS011;6779;50.150;8.680;2022-07-23T08:33:33;6.17;;;4.50;;
13415;SDS011;6779;50.150;8.680;2022-07-23T08:35:59;4.23;;;3.83;;
13415;SDS011;6779;50.150;8.680;2022-07-23T08:38:25;4.90;;;3.90;;
13415;SDS011;6779;50.150;8.680;2022-07-23T08:40:52;5.10;;;3.70;;
13415;SDS011;6779;50.150;8.680;2022-07-23T08:43:26;4.50;;;3.30;;
13415;SDS011;6779;50.150;8.680;2022-07-23T08:45:53;5.30;;;3.50;;
13415;SDS011;6779;50.150;8.680;2022-07-23T08:48:24;5.40;;;4.17;;
13415;SDS011;6779;50.150;8.680;2022-07-23T08:50:55;4.20;;;3.80;;
13415;SDS011;6779;50.150;8.680;2022-07-23T08:53:22;5.73;;;4.20;;
13415;SDS011;6779;50.150;8.680;2022-07-23T08:55:50;4.93;;;4.17;;
13415;SDS011;6779;50.150;8.680;2022-07-23T08:58:19;4.40;;;3.97;;
13415;SDS011;6779;50.150;8.680;2022-07-23T09:00:45;4.63;;;3.83;;
13415;SDS011;6779;50.150;8.680;2022-07-23T09:03:19;5.40;;;4.17;;
13415;SDS011;6779;50.150;8.680;2022-07-23T09:05:47;5.60;;;4.00;;
13415;SDS011;6779;50.150;8.680;2022-07-23T09:08:15;5.60;;;3.83;;
13415;SDS011;6779;50.150;8.680;2022-07-23T09:18:50;4.50;;;3.73;;
13415;SDS011;6779;50.150;8.680;2022-07-23T09:21:18;4.60;;;3.60;;
13415;SDS011;6779;50.150;8.680;2022-07-23T09:23:46;4.88;;;3.55;;
13415;SDS011;6779;50.150;8.680;2022-07-23T09:26:22;4.13;;;3.47;;
13415;SDS011;6779;50.150;8.680;2022-07-23T09:28:56;4.07;;;3.38;;
13415;SDS011;6779;50.150;8.680;2022-07-23T09:31:22;3.90;;;3.33;;
13415;SDS011;6779;50.150;8.680;2022-07-23T09:33:49;4.35;;;3.50;;
13415;SDS011;6779;50.150;8.680;2022-07-23T09:36:15;3.60;;;3.30;;
13415;SDS011;6779;50.150;8.680;2022-07-23T09:38:51;4.00;;;3.60;;
13415;SDS011;6779;50.150;8.680;2022-07-23T09:41:17;4.20;;;3.25;;
13415;SDS011;6779;50.150;8.680;2022-07-23T09:43:43;3.25;;;2.95;;
13415;SDS011;6779;50.150;8.680;2022-07-23T09:46:25;3.20;;;2.90;;
13415;SDS011;6779;50.150;8.680;2022-07-23T09:48:52;3.35;;;3.05;;
13415;SDS011;6779;50.150;8.680;2022-07-23T09:51:21;2.78;;;2.58;;
13415;SDS011;6779;50.150;8.680;2022-07-23T09:53:54;3.08;;;2.72;;
13415;SDS011;6779;50.150;8.680;2022-07-23T09:56:20;3.28;;;2.72;;
13415;SDS011;6779;50.150;8.680;2022-07-23T09:58:46;3.20;;;2.75;;
13415;SDS011;6779;50.150;8.680;2022-07-23T10:01:15;3.72;;;3.17;;
13415;SDS011;6779;50.150;8.680;2022-07-23T10:03:41;2.95;;;2.75;;
13415;SDS011;6779;50.150;8.680;2022-07-23T10:06:10;3.22;;;2.92;;
13415;SDS011;6779;50.150;8.680;2022-07-23T10:08:39;2.92;;;2.55;;
13415;SDS011;6779;50.150;8.680;2022-07-23T10:11:07;3.35;;;3.05;;
13415;SDS011;6779;50.150;8.680;2022-07-23T10:13:34;3.20;;;2.90;;
13415;SDS011;6779;50.150;8.680;2022-07-23T10:16:15;3.35;;;3.05;;
13415;SDS011;6779;50.150;8.680;2022-07-23T10:18:41;3.58;;;3.10;;
13415;SDS011;6779;50.150;8.680;2022-07-23T10:21:07;4.15;;;3.20;;
13415;SDS011;6779;50.150;8.680;2022-07-23T10:23:36;3.28;;;2.90;;
13415;SDS011;6779;50.150;8.680;2022-07-23T10:26:24;3.33;;;3.03;;
13415;SDS011;6779;50.150;8.680;2022-07-23T10:29:17;3.17;;;2.97;;
13415;SDS011;6779;50.150;8.680;2022-07-23T10:32:20;2.88;;;2.67;;
13415;SDS011;6779;50.150;8.680;2022-07-23T10:37:44;3.60;;;3.10;;
13415;SDS011;6779;50.150;8.680;2022-07-23T10:40:20;3.25;;;2.95;;
13415;SDS011;6779;50.150;8.680;2022-07-23T10:42:51;4.03;;;3.63;;
13415;SDS011;6779;50.150;8.680;2022-07-23T10:45:23;3.08;;;2.67;;
13415;SDS011;6779;50.150;8.680;2022-07-23T10:47:51;2.97;;;2.78;;
13415;SDS011;6779;50.150;8.680;2022-07-23T10:57:53;2.75;;;2.55;;
13415;SDS011;6779;50.150;8.680;2022-07-23T11:00:23;3.17;;;2.90;;
13415;SDS011;6779;50.150;8.680;2022-07-23T11:02:51;2.90;;;2.70;;
13415;SDS011;6779;50.150;8.680;2022-07-23T11:05:22;4.57;;;3.60;;
13415;SDS011;6779;50.150;8.680;2022-07-23T11:10:31;2.95;;;2.75;;
13415;SDS011;6779;50.150;8.680;2022-07-23T11:31:57;2.97;;;2.72;;
13415;SDS011;6779;50.150;8.680;2022-07-23T11:34:31;2.63;;;2.42;;
13415;SDS011;6779;50.150;8.680;2022-07-23T11:36:58;3.95;;;2.70;;
13415;SDS011;6779;50.150;8.680;2022-07-23T11:39:26;4.28;;;2.50;;
13415;SDS011;6779;50.150;8.680;2022-07-23T11:41:54;2.85;;;2.65;;
13415;SDS011;6779;50.150;8.680;2022-07-23T11:44:26;2.92;;;2.72;;
13415;SDS011;6779;50.150;8.680;2022-07-23T11:46:56;2.85;;;2.65;;
13415;SDS011;6779;50.150;8.680;2022-07-23T11:49:25;3.38;;;3.08;;
13415;SDS011;6779;50.150;8.680;2022-07-23T11:52:10;3.08;;;2.78;;
13415;SDS011;6779;50.150;8.680;2022-07-23T11:54:48;3.25;;;2.95;;
13415;SDS011;6779;50.150;8.680;2022-07-23T11:57:26;4.10;;;3.65;;
13415;SDS011;6779;50.150;8.680;2022-07-23T11:59:57;4.45;;;3.08;;
13415;SDS011;6779;50.150;8.680;2022-07-23T12:02:32;3.67;;;2.92;;
13415;SDS011;6779;50.150;8.680;2022-07-23T12:04:58;3.55;;;3.25;;
13415;SDS011;6779;50.150;8.680;2022-07-23T12:07:28;4.05;;;3.55;;
13415;SDS011;6779;50.150;8.680;2022-07-23T12:09:59;3.70;;;3.28;;
13415;SDS011;6779;50.150;8.680;2022-07-23T12:12:48;4.50;;;3.53;;
13415;SDS011;6779;50.150;8.680;2022-07-23T12:15:19;3.47;;;3.05;;
13415;SDS011;6779;50.150;8.680;2022-07-23T12:17:49;3.50;;;3.17;;
13415;SDS011;6779;50.150;8.680;2022-07-23T12:20:16;3.72;;;3.08;;
13415;SDS011;6779;50.150;8.680;2022-07-23T12:22:45;3.50;;;3.20;;
13415;SDS011;6779;50.150;8.680;2022-07-23T12:25:17;4.47;;;3.63;;
13415;SDS011;6779;50.150;8.680;2022-07-23T12:27:45;3.75;;;3.42;;
13415;SDS011;6779;50.150;8.680;2022-07-23T12:30:23;5.78;;;4.00;;
13415;SDS011;6779;50.150;8.680;2022-07-23T12:32:52;4.53;;;3.85;;
13415;SDS011;6779;50.150;8.680;2022-07-23T12:35:20;4.40;;;3.90;;
13415;SDS011;6779;50.150;8.680;2022-07-23T12:37:47;3.75;;;3.40;;
13415;SDS011;6779;50.150;8.680;2022-07-23T12:45:27;3.50;;;3.20;;
13415;SDS011;6779;50.150;8.680;2022-07-23T12:48:05;4.90;;;4.40;;
13415;SDS011;6779;50.150;8.680;2022-07-23T12:53:06;4.15;;;3.75;;
13415;SDS011;6779;50.150;8.680;2022-07-23T12:55:36;4.95;;;3.72;;
13415;SDS011;6779;50.150;8.680;2022-07-23T12:58:10;4.65;;;3.90;;
13415;SDS011;6779;50.150;8.680;2022-07-23T13:01:00;5.22;;;3.60;;
13415;SDS011;6779;50.150;8.680;2022-07-23T13:03:39;4.60;;;4.15;;
13415;SDS011;6779;50.150;8.680;2022-07-23T13:06:07;3.80;;;3.50;;
13415;SDS011;6779;50.150;8.680;2022-07-23T13:08:35;4.15;;;3.55;;
13415;SDS011;6779;50.150;8.680;2022-07-23T13:11:02;4.18;;;3.78;;
13415;SDS011;6779;50.150;8.680;2022-07-23T13:13:30;4.63;;;3.55;;
13415;SDS011;6779;50.150;8.680;2022-07-23T13:15:57;4.60;;;3.88;;
13415;SDS011;6779;50.150;8.680;2022-07-23T13:18:23;4.97;;;3.58;;
13415;SDS011;6779;50.150;8.680;2022-07-23T13:20:50;4.40;;;4.00;;
13415;SDS011;6779;50.150;8.680;2022-07-23T13:23:16;3.83;;;3.45;;
13415;SDS011;6779;50.150;8.680;2022-07-23T13:25:41;5.57;;;3.90;;
13415;SDS011;6779;50.150;8.680;2022-07-23T13:28:07;3.78;;;3.47;;
13415;SDS011;6779;50.150;8.680;2022-07-23T13:30:33;6.28;;;4.07;;
13415;SDS011;6779;50.150;8.680;2022-07-23T13:33:01;3.88;;;3.42;;
13415;SDS011;6779;50.150;8.680;2022-07-23T13:35:28;4.00;;;3.70;;
13415;SDS011;6779;50.150;8.680;2022-07-23T13:37:54;4.20;;;3.60;;
13415;SDS011;6779;50.150;8.680;2022-07-23T13:40:20;5.30;;;4.10;;
13415;SDS011;6779;50.150;8.680;2022-07-23T13:42:46;4.10;;;3.80;;
13415;SDS011;6779;50.150;8.680;2022-07-23T13:45:11;5.05;;;4.18;;
13415;SDS011;6779;50.150;8.680;2022-07-23T13:47:37;4.25;;;3.85;;
13415;SDS011;6779;50.150;8.680;2022-07-23T13:50:03;4.93;;;4.07;;
13415;SDS011;6779;50.150;8.680;2022-07-23T13:52:30;5.00;;;4.15;;
13415;SDS011;6779;50.150;8.680;2022-07-23T13:54:59;6.07;;;4.63;;
13415;SDS011;6779;50.150;8.680;2022-07-23T13:57:29;4.30;;;3.83;;
13415;SDS011;6779;50.150;8.680;2022-07-23T13:59:55;6.97;;;4.00;;
13415;SDS011;6779;50.150;8.680;2022-07-23T14:02:21;4.38;;;3.97;;
13415;SDS011;6779;50.150;8.680;2022-07-23T14:04:47;5.25;;;4.18;;
13415;SDS011;6779;50.150;8.680;2022-07-23T14:07:13;5.15;;;4.65;;
13415;SDS011;6779;50.150;8.680;2022-07-23T14:09:38;4.43;;;3.75;;
13415;SDS011;6779;50.150;8.680;2022-07-23T14:12:04;4.57;;;4.18;;
13415;SDS011;6779;50.150;8.680;2022-07-23T14:14:30;5.20;;;4.43;;
13415;SDS011;6779;50.150;8.680;2022-07-23T14:16:56;4.32;;;3.90;;
13415;SDS011;6779;50.150;8.680;2022-07-23T14:19:22;5.07;;;4.15;;
13415;SDS011;6779;50.150;8.680;2022-07-23T14:21:48;5.10;;;4.60;;
13415;SDS011;6779;50.150;8.680;2022-07-23T14:24:14;4.85;;;4.15;;
13415;SDS011;6779;50.150;8.680;2022-07-23T14:26:40;5.03;;;4.13;;
13415;SDS011;6779;50.150;8.680;2022-07-23T14:29:06;5.25;;;4.75;;
13415;SDS011;6779;50.150;8.680;2022-07-23T14:31:32;4.60;;;4.20;;
13415;SDS011;6779;50.150;8.680;2022-07-23T14:33:57;4.90;;;4.40;;
13415;SDS011;6779;50.150;8.680;2022-07-23T14:36:24;5.00;;;4.60;;
13415;SDS011;6779;50.150;8.680;2022-07-23T14:38:50;5.88;;;4.20;;
13415;SDS011;6779;50.150;8.680;2022-07-23T14:41:15;5.18;;;4.75;;
13415;SDS011;6779;50.150;8.680;2022-07-23T14:43:41;5.55;;;4.82;;
13415;SDS011;6779;50.150;8.680;2022-07-23T14:46:07;4.80;;;4.40;;
13415;SDS011;6779;50.150;8.680;2022-07-23T14:48:33;4.93;;;4.20;;
13415;SDS011;6779;50.150;8.680;2022-07-23T14:50:58;5.20;;;4.40;;
13415;SDS011;6779;50.150;8.680;2022-07-23T14:53:24;6.38;;;4.07;;
13415;SDS011;6779;50.150;8.680;2022-07-23T14:55:49;5.13;;;4.22;;
13415;SDS011;6779;50.150;8.680;2022-07-23T14:58:15;4.28;;;3.88;;
13415;SDS011;6779;50.150;8.680;2022-07-23T15:00:41;4.97;;;4.07;;
13415;SDS011;6779;50.150;8.680;2022-07-23T15:03:07;5.03;;;3.90;;
13415;SDS011;6779;50.150;8.680;2022-07-23T15:05:32;4.70;;;3.80;;
13415;SDS011;6779;50.150;8.680;2022-07-23T15:07:58;4.28;;;3.88;;
13415;SDS011;6779;50.150;8.680;2022-07-23T15:10:24;5.43;;;4.20;;
13415;SDS011;6779;50.150;8.680;2022-07-23T15:12:49;5.47;;;4.15;;
13415;SDS011;6779;50.150;8.680;2022-07-23T15:15:15;5.20;;;4.50;;
13415;SDS011;6779;50.150;8.680;2022-07-23T15:17:42;7.03;;;4.45;;
13415;SDS011;6779;50.150;8.680;2022-07-23T15:20:08;5.30;;;4.10;;
13415;SDS011;6779;50.150;8.680;2022-07-23T15:22:34;5.88;;;4.40;;
13415;SDS011;6779;50.150;8.680;2022-07-23T15:25:00;4.53;;;3.67;;
13415;SDS011;6779;50.150;8.680;2022-07-23T15:27:26;5.25;;;3.85;;
13415;SDS011;6779;50.150;8.680;2022-07-23T15:29:52;3.97;;;3.58;;
13415;SDS011;6779;50.150;8.680;2022-07-23T15:32:17;5.32;;;3.72;;
13415;SDS011;6779;50.150;8.680;2022-07-23T15:34:43;4.00;;;3.60;;
13415;SDS011;6779;50.150;8.680;2022-07-23T15:37:09;6.50;;;3.88;;
13415;SDS011;6779;50.150;8.680;2022-07-23T15:39:34;4.72;;;3.60;;
13415;SDS011;6779;50.150;8.680;2022-07-23T15:42:00;4.20;;;3.80;;
13415;SDS011;6779;50.150;8.680;2022-07-23T15:44:27;3.83;;;3.35;;
13415;SDS011;6779;50.150;8.680;2022-07-23T15:46:53;3.55;;;3.25;;